sensor_id;sensor_type;location;lat;lon;timestamp;P1;durP1;ratioP1;P2;durP2;ratioP2
4957;SDS011;2494;51.872;9.688;2023-07-20T00:02:20;8.00;;;7.30;;
4957;SDS011;2494;51.872;9.688;2023-07-20T00:05:07;8.70;;;7.80;;
4957;SDS011;2494;51.872;9.688;2023-07-20T00:07:52;8.50;;;7.80;;
4957;SDS011;2494;51.872;9.688;2023-07-20T00:10:37;10.80;;;7.20;;
4957;SDS011;2494;51.872;9.688;2023-07-20T00:13:22;12.50;;;8.20;;
4957;SDS011;2494;51.872;9.688;2023-07-20T00:16:07;10.97;;;7.90;;
4957;SDS011;2494;51.872;9.688;2023-07-20T00:18:52;11.43;;;7.90;;
4957;SDS011;2494;51.872;9.688;2023-07-20T00:21:39;8.27;;;7.60;;
4957;SDS011;2494;51.872;9.688;2023-07-20T00:24:26;8.53;;;7.77;;
4957;SDS011;2494;51.872;9.688;2023-07-20T00:27:11;9.30;;;7.97;;
4957;SDS011;2494;51.872;9.688;2023-07-20T00:29:57;9.47;;;8.60;;
4957;SDS011;2494;51.872;9.688;2023-07-20T00:32:42;11.10;;;8.60;;
4957;SDS011;2494;51.872;9.688;2023-07-20T00:35:27;12.03;;;8.60;;
4957;SDS011;2494;51.872;9.688;2023-07-20T00:38:13;9.00;;;8.43;;
4957;SDS011;2494;51.872;9.688;2023-07-20T00:40:58;11.40;;;8.40;;
4957;SDS011;2494;51.872;9.688;2023-07-20T00:43:44;11.50;;;10.50;;
4957;SDS011;2494;51.872;9.688;2023-07-20T00:46:29;10.23;;;9.40;;
4957;SDS011;2494;51.872;9.688;2023-07-20T00:49:16;15.67;;;9.13;;
4957;SDS011;2494;51.872;9.688;2023-07-20T00:52:05;10.50;;;8.90;;
4957;SDS011;2494;51.872;9.688;2023-07-20T00:54:53;11.13;;;9.53;;
4957;SDS011;2494;51.872;9.688;2023-07-20T00:57:40;11.07;;;9.07;;
4957;SDS011;2494;51.872;9.688;2023-07-20T01:00:25;8.63;;;8.00;;
4957;SDS011;2494;51.872;9.688;2023-07-20T01:03:10;12.20;;;8.60;;
4957;SDS011;2494;51.872;9.688;2023-07-20T01:05:58;10.33;;;8.23;;
4957;SDS011;2494;51.872;9.688;2023-07-20T01:08:50;9.97;;;8.70;;
4957;SDS011;2494;51.872;9.688;2023-07-20T01:11:41;8.77;;;7.93;;
4957;SDS011;2494;51.872;9.688;2023-07-20T01:14:28;15.83;;;9.20;;
4957;SDS011;2494;51.872;9.688;2023-07-20T01:17:14;11.77;;;9.07;;
4957;SDS011;2494;51.872;9.688;2023-07-20T01:19:59;9.47;;;8.77;;
4957;SDS011;2494;51.872;9.688;2023-07-20T01:22:48;12.80;;;8.67;;
4957;SDS011;2494;51.872;9.688;2023-07-20T01:25:52;9.10;;;7.97;;
4957;SDS011;2494;51.872;9.688;2023-07-20T01:31:44;8.93;;;8.03;;
4957;SDS011;2494;51.872;9.688;2023-07-20T01:34:29;11.40;;;8.93;;
4957;SDS011;2494;51.872;9.688;2023-07-20T01:37:17;9.83;;;8.70;;
4957;SDS011;2494;51.872;9.688;2023-07-20T01:40:04;9.50;;;8.80;;
4957;SDS011;2494;51.872;9.688;2023-07-20T01:42:49;10.57;;;9.57;;
4957;SDS011;2494;51.872;9.688;2023-07-20T01:45:35;11.90;;;9.40;;
4957;SDS011;2494;51.872;9.688;2023-07-20T01:48:22;9.57;;;8.63;;
4957;SDS011;2494;51.872;9.688;2023-07-20T01:51:07;9.77;;;9.07;;
4957;SDS011;2494;51.872;9.688;2023-07-20T01:53:53;12.43;;;8.70;;
4957;SDS011;2494;51.872;9.688;2023-07-20T01:56:38;9.50;;;8.57;;
4957;SDS011;2494;51.872;9.688;2023-07-20T01:59:24;9.70;;;8.77;;
4957;SDS011;2494;51.872;9.688;2023-07-20T02:02:09;9.03;;;8.30;;
4957;SDS011;2494;51.872;9.688;2023-07-20T02:04:55;8.80;;;8.10;;
4957;SDS011;2494;51.872;9.688;2023-07-20T02:07:40;11.10;;;10.17;;
4957;SDS011;2494;51.872;9.688;2023-07-20T02:10:25;14.67;;;9.90;;
4957;SDS011;2494;51.872;9.688;2023-07-20T02:13:10;14.00;;;9.67;;
4957;SDS011;2494;51.872;9.688;2023-07-20T02:15:56;16.07;;;9.80;;
4957;SDS011;2494;51.872;9.688;2023-07-20T02:18:41;10.90;;;8.57;;
4957;SDS011;2494;51.872;9.688;2023-07-20T02:21:28;11.17;;;10.10;;
4957;SDS011;2494;51.872;9.688;2023-07-20T02:24:13;10.47;;;9.67;;
4957;SDS011;2494;51.872;9.688;2023-07-20T02:26:57;12.53;;;9.20;;
4957;SDS011;2494;51.872;9.688;2023-07-20T02:29:43;11.20;;;10.10;;
4957;SDS011;2494;51.872;9.688;2023-07-20T02:32:31;10.07;;;9.07;;
4957;SDS011;2494;51.872;9.688;2023-07-20T02:35:16;10.63;;;8.73;;
4957;SDS011;2494;51.872;9.688;2023-07-20T02:38:03;12.50;;;9.37;;
4957;SDS011;2494;51.872;9.688;2023-07-20T02:40:48;9.80;;;9.00;;
4957;SDS011;2494;51.872;9.688;2023-07-20T02:43:39;16.43;;;10.60;;
4957;SDS011;2494;51.872;9.688;2023-07-20T02:46:24;11.37;;;7.70;;
4957;SDS011;2494;51.872;9.688;2023-07-20T02:49:09;11.60;;;8.50;;
4957;SDS011;2494;51.872;9.688;2023-07-20T02:51:55;9.73;;;8.93;;
4957;SDS011;2494;51.872;9.688;2023-07-20T02:54:42;12.00;;;7.77;;
4957;SDS011;2494;51.872;9.688;2023-07-20T02:57:27;15.40;;;9.07;;
4957;SDS011;2494;51.872;9.688;2023-07-20T03:00:15;10.03;;;7.53;;
4957;SDS011;2494;51.872;9.688;2023-07-20T03:03:03;11.70;;;7.73;;
4957;SDS011;2494;51.872;9.688;2023-07-20T03:05:53;9.50;;;8.70;;
4957;SDS011;2494;51.872;9.688;2023-07-20T03:08:39;12.00;;;8.03;;
4957;SDS011;2494;51.872;9.688;2023-07-20T03:11:27;9.40;;;8.50;;
4957;SDS011;2494;51.872;9.688;2023-07-20T03:14:13;14.00;;;8.57;;
4957;SDS011;2494;51.872;9.688;2023-07-20T03:17:01;9.10;;;8.30;;
4957;SDS011;2494;51.872;9.688;2023-07-20T03:19:46;12.20;;;9.50;;
4957;SDS011;2494;51.872;9.688;2023-07-20T03:22:31;9.10;;;8.20;;
4957;SDS011;2494;51.872;9.688;2023-07-20T03:25:17;12.30;;;8.17;;
4957;SDS011;2494;51.872;9.688;2023-07-20T03:28:07;9.50;;;8.83;;
4957;SDS011;2494;51.872;9.688;2023-07-20T03:30:53;9.43;;;8.53;;
4957;SDS011;2494;51.872;9.688;2023-07-20T03:33:39;10.03;;;9.30;;
4957;SDS011;2494;51.872;9.688;2023-07-20T03:36:24;9.80;;;8.87;;
4957;SDS011;2494;51.872;9.688;2023-07-20T03:39:09;12.30;;;8.70;;
4957;SDS011;2494;51.872;9.688;2023-07-20T03:41:54;14.93;;;12.30;;
4957;SDS011;2494;51.872;9.688;2023-07-20T03:44:41;15.97;;;10.80;;
4957;SDS011;2494;51.872;9.688;2023-07-20T03:47:26;14.80;;;10.07;;
4957;SDS011;2494;51.872;9.688;2023-07-20T03:50:12;10.57;;;9.47;;
4957;SDS011;2494;51.872;9.688;2023-07-20T03:52:57;11.13;;;10.10;;
4957;SDS011;2494;51.872;9.688;2023-07-20T03:55:44;9.20;;;8.27;;
4957;SDS011;2494;51.872;9.688;2023-07-20T03:58:41;9.30;;;8.50;;
4957;SDS011;2494;51.872;9.688;2023-07-20T04:01:30;10.60;;;8.50;;
4957;SDS011;2494;51.872;9.688;2023-07-20T04:04:21;11.87;;;10.60;;
4957;SDS011;2494;51.872;9.688;2023-07-20T04:07:12;12.30;;;11.10;;
4957;SDS011;2494;51.872;9.688;2023-07-20T04:09:58;13.93;;;11.60;;
4957;SDS011;2494;51.872;9.688;2023-07-20T04:12:43;13.63;;;12.37;;
4957;SDS011;2494;51.872;9.688;2023-07-20T04:15:29;15.77;;;14.07;;
4957;SDS011;2494;51.872;9.688;2023-07-20T04:18:16;14.30;;;12.90;;
4957;SDS011;2494;51.872;9.688;2023-07-20T04:21:01;14.33;;;12.93;;
4957;SDS011;2494;51.872;9.688;2023-07-20T04:23:46;12.67;;;11.33;;
4957;SDS011;2494;51.872;9.688;2023-07-20T04:26:31;11.30;;;10.20;;
4957;SDS011;2494;51.872;9.688;2023-07-20T04:29:17;11.00;;;10.00;;
4957;SDS011;2494;51.872;9.688;2023-07-20T04:32:02;10.43;;;9.50;;
4957;SDS011;2494;51.872;9.688;2023-07-20T04:34:48;11.17;;;9.50;;
4957;SDS011;2494;51.872;9.688;2023-07-20T04:37:34;12.00;;;9.90;;
4957;SDS011;2494;51.872;9.688;2023-07-20T04:40:19;10.67;;;9.80;;
4957;SDS011;2494;51.872;9.688;2023-07-20T04:43:05;12.40;;;11.20;;
4957;SDS011;2494;51.872;9.688;2023-07-20T04:45:54;12.07;;;10.87;;
4957;SDS011;2494;51.872;9.688;2023-07-20T04:48:42;16.73;;;11.87;;
4957;SDS011;2494;51.872;9.688;2023-07-20T04:51:29;12.07;;;10.90;;
4957;SDS011;2494;51.872;9.688;2023-07-20T04:54:14;13.10;;;11.90;;
4957;SDS011;2494;51.872;9.688;2023-07-20T04:57:01;13.50;;;12.30;;
4957;SDS011;2494;51.872;9.688;2023-07-20T04:59:46;12.33;;;11.07;;
4957;SDS011;2494;51.872;9.688;2023-07-20T05:02:31;12.53;;;11.53;;
4957;SDS011;2494;51.872;9.688;2023-07-20T05:05:26;14.40;;;13.10;;
4957;SDS011;2494;51.872;9.688;2023-07-20T05:08:12;12.93;;;11.73;;
4957;SDS011;2494;51.872;9.688;2023-07-20T05:10:59;16.67;;;15.00;;
4957;SDS011;2494;51.872;9.688;2023-07-20T05:13:44;21.73;;;17.27;;
4957;SDS011;2494;51.872;9.688;2023-07-20T05:16:29;21.70;;;17.70;;
4957;SDS011;2494;51.872;9.688;2023-07-20T05:19:15;20.67;;;18.57;;
4957;SDS011;2494;51.872;9.688;2023-07-20T05:21:59;21.40;;;19.30;;
4957;SDS011;2494;51.872;9.688;2023-07-20T05:24:49;29.60;;;19.43;;
4957;SDS011;2494;51.872;9.688;2023-07-20T05:27:34;15.83;;;13.93;;
4957;SDS011;2494;51.872;9.688;2023-07-20T05:30:20;12.47;;;8.93;;
4957;SDS011;2494;51.872;9.688;2023-07-20T05:33:05;12.23;;;6.00;;
4957;SDS011;2494;51.872;9.688;2023-07-20T05:35:51;13.43;;;3.43;;
4957;SDS011;2494;51.872;9.688;2023-07-20T05:38:36;4.80;;;2.27;;
4957;SDS011;2494;51.872;9.688;2023-07-20T05:41:23;3.87;;;1.80;;
4957;SDS011;2494;51.872;9.688;2023-07-20T05:44:08;2.73;;;2.00;;
4957;SDS011;2494;51.872;9.688;2023-07-20T05:46:54;2.30;;;1.40;;
4957;SDS011;2494;51.872;9.688;2023-07-20T05:49:42;1.77;;;1.67;;
4957;SDS011;2494;51.872;9.688;2023-07-20T05:52:28;2.03;;;1.40;;
4957;SDS011;2494;51.872;9.688;2023-07-20T05:55:14;2.60;;;2.17;;
4957;SDS011;2494;51.872;9.688;2023-07-20T05:58:02;5.73;;;2.60;;
4957;SDS011;2494;51.872;9.688;2023-07-20T06:00:48;2.40;;;2.20;;
4957;SDS011;2494;51.872;9.688;2023-07-20T06:03:34;3.17;;;2.80;;
4957;SDS011;2494;51.872;9.688;2023-07-20T06:06:21;3.10;;;2.90;;
4957;SDS011;2494;51.872;9.688;2023-07-20T06:09:06;3.83;;;2.83;;
4957;SDS011;2494;51.872;9.688;2023-07-20T06:11:56;4.10;;;3.80;;
4957;SDS011;2494;51.872;9.688;2023-07-20T06:15:01;3.50;;;3.30;;
4957;SDS011;2494;51.872;9.688;2023-07-20T06:17:46;3.70;;;3.40;;
4957;SDS011;2494;51.872;9.688;2023-07-20T06:20:31;4.83;;;4.53;;
4957;SDS011;2494;51.872;9.688;2023-07-20T06:23:17;4.60;;;4.30;;
4957;SDS011;2494;51.872;9.688;2023-07-20T06:26:02;5.50;;;4.97;;
4957;SDS011;2494;51.872;9.688;2023-07-20T06:28:47;6.30;;;5.80;;
4957;SDS011;2494;51.872;9.688;2023-07-20T06:31:34;6.07;;;5.53;;
4957;SDS011;2494;51.872;9.688;2023-07-20T06:34:22;6.80;;;6.30;;
4957;SDS011;2494;51.872;9.688;2023-07-20T06:37:08;8.23;;;6.53;;
4957;SDS011;2494;51.872;9.688;2023-07-20T06:39:53;6.43;;;6.00;;
4957;SDS011;2494;51.872;9.688;2023-07-20T06:42:38;7.30;;;6.80;;
4957;SDS011;2494;51.872;9.688;2023-07-20T06:45:27;6.03;;;5.63;;
4957;SDS011;2494;51.872;9.688;2023-07-20T06:48:13;5.07;;;4.33;;
4957;SDS011;2494;51.872;9.688;2023-07-20T06:50:59;4.97;;;4.53;;
4957;SDS011;2494;51.872;9.688;2023-07-20T06:53:44;5.87;;;5.57;;
4957;SDS011;2494;51.872;9.688;2023-07-20T06:56:30;7.97;;;7.27;;
4957;SDS011;2494;51.872;9.688;2023-07-20T06:59:15;7.67;;;7.00;;
4957;SDS011;2494;51.872;9.688;2023-07-20T07:02:01;7.30;;;6.77;;
4957;SDS011;2494;51.872;9.688;2023-07-20T07:04:47;7.23;;;6.73;;
4957;SDS011;2494;51.872;9.688;2023-07-20T07:07:32;7.37;;;6.87;;
4957;SDS011;2494;51.872;9.688;2023-07-20T07:10:18;7.80;;;7.10;;
4957;SDS011;2494;51.872;9.688;2023-07-20T07:13:03;5.73;;;5.43;;
4957;SDS011;2494;51.872;9.688;2023-07-20T07:15:48;5.50;;;4.17;;
4957;SDS011;2494;51.872;9.688;2023-07-20T07:18:34;4.17;;;3.90;;
4957;SDS011;2494;51.872;9.688;2023-07-20T07:21:21;4.43;;;4.23;;
4957;SDS011;2494;51.872;9.688;2023-07-20T07:24:06;4.23;;;4.03;;
4957;SDS011;2494;51.872;9.688;2023-07-20T07:26:51;5.03;;;4.73;;
4957;SDS011;2494;51.872;9.688;2023-07-20T07:29:37;8.73;;;8.07;;
4957;SDS011;2494;51.872;9.688;2023-07-20T07:32:23;4.90;;;4.60;;
4957;SDS011;2494;51.872;9.688;2023-07-20T07:35:11;4.03;;;3.83;;
4957;SDS011;2494;51.872;9.688;2023-07-20T07:37:58;3.40;;;3.20;;
4957;SDS011;2494;51.872;9.688;2023-07-20T07:40:44;3.20;;;3.00;;
4957;SDS011;2494;51.872;9.688;2023-07-20T07:43:29;3.23;;;2.93;;
4957;SDS011;2494;51.872;9.688;2023-07-20T07:46:14;3.23;;;2.93;;
4957;SDS011;2494;51.872;9.688;2023-07-20T07:49:00;3.73;;;3.47;;
4957;SDS011;2494;51.872;9.688;2023-07-20T07:51:45;3.00;;;2.80;;
4957;SDS011;2494;51.872;9.688;2023-07-20T07:54:32;6.23;;;3.80;;
4957;SDS011;2494;51.872;9.688;2023-07-20T07:57:17;4.10;;;3.90;;
4957;SDS011;2494;51.872;9.688;2023-07-20T08:00:03;5.30;;;3.93;;
4957;SDS011;2494;51.872;9.688;2023-07-20T08:02:49;4.20;;;4.00;;
4957;SDS011;2494;51.872;9.688;2023-07-20T08:05:35;3.00;;;2.80;;
4957;SDS011;2494;51.872;9.688;2023-07-20T08:08:20;2.63;;;2.43;;
4957;SDS011;2494;51.872;9.688;2023-07-20T08:11:07;3.27;;;3.07;;
4957;SDS011;2494;51.872;9.688;2023-07-20T08:13:52;4.40;;;4.03;;
4957;SDS011;2494;51.872;9.688;2023-07-20T08:16:38;4.00;;;3.80;;
4957;SDS011;2494;51.872;9.688;2023-07-20T08:19:23;7.27;;;4.57;;
4957;SDS011;2494;51.872;9.688;2023-07-20T08:22:09;3.37;;;3.17;;
4957;SDS011;2494;51.872;9.688;2023-07-20T08:24:56;4.10;;;3.80;;
4957;SDS011;2494;51.872;9.688;2023-07-20T08:27:42;2.50;;;2.40;;
4957;SDS011;2494;51.872;9.688;2023-07-20T08:30:38;1.67;;;1.57;;
4957;SDS011;2494;51.872;9.688;2023-07-20T08:33:24;2.20;;;2.00;;
4957;SDS011;2494;51.872;9.688;2023-07-20T08:36:13;3.30;;;1.63;;
4957;SDS011;2494;51.872;9.688;2023-07-20T08:39:01;1.23;;;1.13;;
4957;SDS011;2494;51.872;9.688;2023-07-20T08:41:48;1.27;;;1.17;;
4957;SDS011;2494;51.872;9.688;2023-07-20T08:44:35;1.50;;;1.40;;
4957;SDS011;2494;51.872;9.688;2023-07-20T08:47:22;2.83;;;2.63;;
4957;SDS011;2494;51.872;9.688;2023-07-20T08:50:08;3.03;;;2.60;;
4957;SDS011;2494;51.872;9.688;2023-07-20T08:52:54;2.40;;;2.30;;
4957;SDS011;2494;51.872;9.688;2023-07-20T08:55:41;1.50;;;1.40;;
4957;SDS011;2494;51.872;9.688;2023-07-20T08:58:28;2.40;;;1.00;;
4957;SDS011;2494;51.872;9.688;2023-07-20T09:01:15;1.20;;;1.10;;
4957;SDS011;2494;51.872;9.688;2023-07-20T09:04:02;1.37;;;0.90;;
4957;SDS011;2494;51.872;9.688;2023-07-20T09:06:48;3.10;;;1.50;;
4957;SDS011;2494;51.872;9.688;2023-07-20T09:09:34;1.00;;;0.90;;
4957;SDS011;2494;51.872;9.688;2023-07-20T09:12:25;2.20;;;1.00;;
4957;SDS011;2494;51.872;9.688;2023-07-20T09:15:11;1.10;;;1.00;;
4957;SDS011;2494;51.872;9.688;2023-07-20T09:18:00;2.50;;;1.10;;
4957;SDS011;2494;51.872;9.688;2023-07-20T09:20:54;0.90;;;0.90;;
4957;SDS011;2494;51.872;9.688;2023-07-20T09:23:43;1.13;;;0.97;;
4957;SDS011;2494;51.872;9.688;2023-07-20T09:26:28;1.07;;;0.97;;
4957;SDS011;2494;51.872;9.688;2023-07-20T09:29:14;1.10;;;1.00;;
4957;SDS011;2494;51.872;9.688;2023-07-20T09:31:59;2.07;;;1.07;;
4957;SDS011;2494;51.872;9.688;2023-07-20T09:34:47;1.73;;;0.90;;
4957;SDS011;2494;51.872;9.688;2023-07-20T09:37:33;2.60;;;1.30;;
4957;SDS011;2494;51.872;9.688;2023-07-20T09:40:19;1.20;;;1.10;;
4957;SDS011;2494;51.872;9.688;2023-07-20T09:43:07;3.90;;;1.20;;
4957;SDS011;2494;51.872;9.688;2023-07-20T09:45:52;1.20;;;1.10;;
4957;SDS011;2494;51.872;9.688;2023-07-20T09:48:42;1.20;;;1.10;;
4957;SDS011;2494;51.872;9.688;2023-07-20T09:51:38;0.97;;;0.97;;
4957;SDS011;2494;51.872;9.688;2023-07-20T09:54:24;1.13;;;1.03;;
4957;SDS011;2494;51.872;9.688;2023-07-20T09:57:11;0.87;;;0.87;;
4957;SDS011;2494;51.872;9.688;2023-07-20T09:59:58;1.17;;;0.90;;
4957;SDS011;2494;51.872;9.688;2023-07-20T10:02:44;1.20;;;0.80;;
4957;SDS011;2494;51.872;9.688;2023-07-20T10:05:29;0.80;;;0.80;;
4957;SDS011;2494;51.872;9.688;2023-07-20T10:08:19;0.80;;;0.80;;
4957;SDS011;2494;51.872;9.688;2023-07-20T10:11:06;1.10;;;0.90;;
4957;SDS011;2494;51.872;9.688;2023-07-20T10:13:53;2.10;;;1.10;;
4957;SDS011;2494;51.872;9.688;2023-07-20T10:16:39;0.97;;;0.90;;
4957;SDS011;2494;51.872;9.688;2023-07-20T10:19:33;0.97;;;0.80;;
4957;SDS011;2494;51.872;9.688;2023-07-20T10:22:20;1.00;;;0.90;;
4957;SDS011;2494;51.872;9.688;2023-07-20T10:25:09;0.80;;;0.70;;
4957;SDS011;2494;51.872;9.688;2023-07-20T10:27:54;0.87;;;0.87;;
4957;SDS011;2494;51.872;9.688;2023-07-20T10:30:40;3.27;;;1.03;;
4957;SDS011;2494;51.872;9.688;2023-07-20T10:33:26;1.67;;;0.80;;
4957;SDS011;2494;51.872;9.688;2023-07-20T10:36:11;1.50;;;0.80;;
4957;SDS011;2494;51.872;9.688;2023-07-20T10:38:57;1.20;;;0.80;;
4957;SDS011;2494;51.872;9.688;2023-07-20T10:41:44;1.00;;;0.90;;
4957;SDS011;2494;51.872;9.688;2023-07-20T10:44:29;1.20;;;1.10;;
4957;SDS011;2494;51.872;9.688;2023-07-20T10:47:15;3.80;;;1.40;;
4957;SDS011;2494;51.872;9.688;2023-07-20T10:50:01;2.33;;;1.50;;
4957;SDS011;2494;51.872;9.688;2023-07-20T10:52:50;2.43;;;1.20;;
4957;SDS011;2494;51.872;9.688;2023-07-20T10:55:48;2.50;;;1.00;;
4957;SDS011;2494;51.872;9.688;2023-07-20T10:58:36;1.00;;;1.00;;
4957;SDS011;2494;51.872;9.688;2023-07-20T11:01:21;0.90;;;0.90;;
4957;SDS011;2494;51.872;9.688;2023-07-20T11:04:08;1.20;;;1.10;;
4957;SDS011;2494;51.872;9.688;2023-07-20T11:06:55;1.10;;;1.00;;
4957;SDS011;2494;51.872;9.688;2023-07-20T11:09:40;1.37;;;1.00;;
4957;SDS011;2494;51.872;9.688;2023-07-20T11:12:26;1.07;;;1.00;;
4957;SDS011;2494;51.872;9.688;2023-07-20T11:15:13;2.20;;;1.20;;
4957;SDS011;2494;51.872;9.688;2023-07-20T11:18:10;1.03;;;0.90;;
4957;SDS011;2494;51.872;9.688;2023-07-20T11:20:56;1.10;;;1.00;;
4957;SDS011;2494;51.872;9.688;2023-07-20T11:23:42;2.03;;;1.10;;
4957;SDS011;2494;51.872;9.688;2023-07-20T11:26:29;1.63;;;1.00;;
4957;SDS011;2494;51.872;9.688;2023-07-20T11:29:15;0.83;;;0.80;;
4957;SDS011;2494;51.872;9.688;2023-07-20T11:32:02;1.00;;;0.90;;
4957;SDS011;2494;51.872;9.688;2023-07-20T11:34:48;0.83;;;0.83;;
4957;SDS011;2494;51.872;9.688;2023-07-20T11:37:33;1.10;;;1.00;;
4957;SDS011;2494;51.872;9.688;2023-07-20T11:40:19;1.10;;;0.77;;
4957;SDS011;2494;51.872;9.688;2023-07-20T11:43:04;0.97;;;0.80;;
4957;SDS011;2494;51.872;9.688;2023-07-20T11:45:49;0.90;;;0.80;;
4957;SDS011;2494;51.872;9.688;2023-07-20T11:48:36;1.20;;;1.10;;
4957;SDS011;2494;51.872;9.688;2023-07-20T11:51:21;1.63;;;0.80;;
4957;SDS011;2494;51.872;9.688;2023-07-20T11:54:07;1.00;;;0.90;;
4957;SDS011;2494;51.872;9.688;2023-07-20T11:56:55;0.70;;;0.60;;
4957;SDS011;2494;51.872;9.688;2023-07-20T11:59:44;1.00;;;0.60;;
4957;SDS011;2494;51.872;9.688;2023-07-20T12:02:37;1.50;;;1.40;;
4957;SDS011;2494;51.872;9.688;2023-07-20T12:05:24;1.10;;;0.80;;
4957;SDS011;2494;51.872;9.688;2023-07-20T12:08:10;0.63;;;0.53;;
4957;SDS011;2494;51.872;9.688;2023-07-20T12:10:56;0.90;;;0.80;;
4957;SDS011;2494;51.872;9.688;2023-07-20T12:13:42;0.80;;;0.70;;
4957;SDS011;2494;51.872;9.688;2023-07-20T12:16:28;0.80;;;0.80;;
4957;SDS011;2494;51.872;9.688;2023-07-20T12:19:13;1.40;;;1.30;;
4957;SDS011;2494;51.872;9.688;2023-07-20T12:22:00;1.10;;;0.80;;
4957;SDS011;2494;51.872;9.688;2023-07-20T12:24:45;1.17;;;0.93;;
4957;SDS011;2494;51.872;9.688;2023-07-20T12:27:30;1.43;;;0.80;;
4957;SDS011;2494;51.872;9.688;2023-07-20T12:30:15;2.50;;;0.97;;
4957;SDS011;2494;51.872;9.688;2023-07-20T12:33:00;0.60;;;0.60;;
4957;SDS011;2494;51.872;9.688;2023-07-20T12:35:46;0.70;;;0.70;;
4957;SDS011;2494;51.872;9.688;2023-07-20T12:38:33;1.37;;;1.10;;
4957;SDS011;2494;51.872;9.688;2023-07-20T12:41:18;1.33;;;0.67;;
4957;SDS011;2494;51.872;9.688;2023-07-20T12:44:03;0.80;;;0.73;;
4957;SDS011;2494;51.872;9.688;2023-07-20T12:46:49;0.63;;;0.60;;
4957;SDS011;2494;51.872;9.688;2023-07-20T12:49:34;2.33;;;0.67;;
4957;SDS011;2494;51.872;9.688;2023-07-20T12:52:20;2.20;;;1.10;;
4957;SDS011;2494;51.872;9.688;2023-07-20T12:55:07;1.37;;;0.70;;
4957;SDS011;2494;51.872;9.688;2023-07-20T12:57:53;1.70;;;0.70;;
4957;SDS011;2494;51.872;9.688;2023-07-20T13:00:38;0.80;;;0.70;;
4957;SDS011;2494;51.872;9.688;2023-07-20T13:03:23;1.10;;;0.90;;
4957;SDS011;2494;51.872;9.688;2023-07-20T13:06:08;1.17;;;0.60;;
4957;SDS011;2494;51.872;9.688;2023-07-20T13:08:53;0.77;;;0.70;;
4957;SDS011;2494;51.872;9.688;2023-07-20T13:11:41;1.07;;;0.73;;
4957;SDS011;2494;51.872;9.688;2023-07-20T13:14:26;0.70;;;0.70;;
4957;SDS011;2494;51.872;9.688;2023-07-20T13:17:12;1.43;;;0.93;;
4957;SDS011;2494;51.872;9.688;2023-07-20T13:19:57;0.90;;;0.77;;
4957;SDS011;2494;51.872;9.688;2023-07-20T13:22:42;0.80;;;0.77;;
4957;SDS011;2494;51.872;9.688;2023-07-20T13:25:27;1.10;;;0.90;;
4957;SDS011;2494;51.872;9.688;2023-07-20T13:28:14;0.83;;;0.70;;
4957;SDS011;2494;51.872;9.688;2023-07-20T13:30:58;0.83;;;0.83;;
4957;SDS011;2494;51.872;9.688;2023-07-20T13:33:44;1.77;;;0.80;;
4957;SDS011;2494;51.872;9.688;2023-07-20T13:36:28;1.20;;;0.80;;
4957;SDS011;2494;51.872;9.688;2023-07-20T13:39:13;3.70;;;1.07;;
4957;SDS011;2494;51.872;9.688;2023-07-20T13:41:58;1.63;;;0.83;;
4957;SDS011;2494;51.872;9.688;2023-07-20T13:44:46;1.00;;;0.90;;
4957;SDS011;2494;51.872;9.688;2023-07-20T13:47:31;0.90;;;0.70;;
4957;SDS011;2494;51.872;9.688;2023-07-20T13:50:16;0.80;;;0.80;;
4957;SDS011;2494;51.872;9.688;2023-07-20T13:53:01;1.67;;;0.70;;
4957;SDS011;2494;51.872;9.688;2023-07-20T13:55:46;0.83;;;0.73;;
4957;SDS011;2494;51.872;9.688;2023-07-20T13:58:31;1.23;;;1.00;;
4957;SDS011;2494;51.872;9.688;2023-07-20T14:01:18;2.30;;;0.80;;
4957;SDS011;2494;51.872;9.688;2023-07-20T14:04:03;1.20;;;0.80;;
4957;SDS011;2494;51.872;9.688;2023-07-20T14:06:49;1.10;;;1.00;;
4957;SDS011;2494;51.872;9.688;2023-07-20T14:09:34;1.10;;;0.93;;
4957;SDS011;2494;51.872;9.688;2023-07-20T14:12:19;1.83;;;1.10;;
4957;SDS011;2494;51.872;9.688;2023-07-20T14:15:05;1.00;;;0.80;;
4957;SDS011;2494;51.872;9.688;2023-07-20T14:17:51;1.73;;;0.80;;
4957;SDS011;2494;51.872;9.688;2023-07-20T14:20:36;1.93;;;0.70;;
4957;SDS011;2494;51.872;9.688;2023-07-20T14:23:21;0.90;;;0.77;;
4957;SDS011;2494;51.872;9.688;2023-07-20T14:26:06;0.97;;;0.90;;
4957;SDS011;2494;51.872;9.688;2023-07-20T14:28:52;0.80;;;0.80;;
4957;SDS011;2494;51.872;9.688;2023-07-20T14:31:37;2.40;;;0.70;;
4957;SDS011;2494;51.872;9.688;2023-07-20T14:34:24;1.10;;;0.77;;
4957;SDS011;2494;51.872;9.688;2023-07-20T14:37:09;0.80;;;0.77;;
4957;SDS011;2494;51.872;9.688;2023-07-20T14:39:54;1.33;;;0.70;;
4957;SDS011;2494;51.872;9.688;2023-07-20T14:42:39;1.80;;;0.90;;
4957;SDS011;2494;51.872;9.688;2023-07-20T14:45:24;0.90;;;0.80;;
4957;SDS011;2494;51.872;9.688;2023-07-20T14:48:09;1.50;;;0.80;;
4957;SDS011;2494;51.872;9.688;2023-07-20T14:50:55;0.97;;;0.87;;
4957;SDS011;2494;51.872;9.688;2023-07-20T14:53:40;2.50;;;1.10;;
4957;SDS011;2494;51.872;9.688;2023-07-20T14:56:25;1.00;;;0.80;;
4957;SDS011;2494;51.872;9.688;2023-07-20T14:59:11;1.30;;;0.70;;
4957;SDS011;2494;51.872;9.688;2023-07-20T15:01:56;0.70;;;0.63;;
4957;SDS011;2494;51.872;9.688;2023-07-20T15:04:45;1.03;;;0.80;;
4957;SDS011;2494;51.872;9.688;2023-07-20T15:07:31;1.00;;;0.90;;
4957;SDS011;2494;51.872;9.688;2023-07-20T15:10:17;2.70;;;0.80;;
4957;SDS011;2494;51.872;9.688;2023-07-20T15:13:01;2.00;;;0.90;;
4957;SDS011;2494;51.872;9.688;2023-07-20T15:15:47;1.13;;;0.87;;
4957;SDS011;2494;51.872;9.688;2023-07-20T15:18:31;0.80;;;0.80;;
4957;SDS011;2494;51.872;9.688;2023-07-20T15:21:16;0.80;;;0.80;;
4957;SDS011;2494;51.872;9.688;2023-07-20T15:24:03;1.63;;;0.80;;
4957;SDS011;2494;51.872;9.688;2023-07-20T15:26:48;0.93;;;0.90;;
4957;SDS011;2494;51.872;9.688;2023-07-20T15:29:33;2.13;;;0.90;;
4957;SDS011;2494;51.872;9.688;2023-07-20T15:32:18;1.63;;;1.00;;
4957;SDS011;2494;51.872;9.688;2023-07-20T15:35:03;0.87;;;0.87;;
4957;SDS011;2494;51.872;9.688;2023-07-20T15:37:49;0.80;;;0.80;;
4957;SDS011;2494;51.872;9.688;2023-07-20T15:40:35;1.47;;;1.37;;
4957;SDS011;2494;51.872;9.688;2023-07-20T15:43:20;1.10;;;1.00;;
4957;SDS011;2494;51.872;9.688;2023-07-20T15:46:30;1.10;;;1.00;;
4957;SDS011;2494;51.872;9.688;2023-07-20T15:49:23;1.27;;;0.90;;
4957;SDS011;2494;51.872;9.688;2023-07-20T15:52:10;0.80;;;0.80;;
4957;SDS011;2494;51.872;9.688;2023-07-20T15:54:57;0.80;;;0.80;;
4957;SDS011;2494;51.872;9.688;2023-07-20T15:57:43;1.10;;;1.00;;
4957;SDS011;2494;51.872;9.688;2023-07-20T16:00:28;1.77;;;0.90;;
4957;SDS011;2494;51.872;9.688;2023-07-20T16:03:13;1.93;;;0.97;;
4957;SDS011;2494;51.872;9.688;2023-07-20T16:05:59;1.00;;;0.90;;
4957;SDS011;2494;51.872;9.688;2023-07-20T16:08:44;1.10;;;1.00;;
4957;SDS011;2494;51.872;9.688;2023-07-20T16:11:29;1.10;;;1.00;;
4957;SDS011;2494;51.872;9.688;2023-07-20T16:14:16;1.80;;;0.93;;
4957;SDS011;2494;51.872;9.688;2023-07-20T16:17:01;2.30;;;1.10;;
4957;SDS011;2494;51.872;9.688;2023-07-20T16:19:46;3.10;;;1.10;;
4957;SDS011;2494;51.872;9.688;2023-07-20T16:22:31;0.83;;;0.83;;
4957;SDS011;2494;51.872;9.688;2023-07-20T16:25:16;1.20;;;1.10;;
4957;SDS011;2494;51.872;9.688;2023-07-20T16:28:01;1.20;;;1.10;;
4957;SDS011;2494;51.872;9.688;2023-07-20T16:30:49;1.50;;;1.40;;
4957;SDS011;2494;51.872;9.688;2023-07-20T16:33:34;1.37;;;1.10;;
4957;SDS011;2494;51.872;9.688;2023-07-20T16:36:18;1.30;;;1.20;;
4957;SDS011;2494;51.872;9.688;2023-07-20T16:39:03;1.63;;;1.10;;
4957;SDS011;2494;51.872;9.688;2023-07-20T16:41:48;1.40;;;1.20;;
4957;SDS011;2494;51.872;9.688;2023-07-20T16:44:33;1.17;;;1.07;;
4957;SDS011;2494;51.872;9.688;2023-07-20T16:47:19;2.30;;;1.50;;
4957;SDS011;2494;51.872;9.688;2023-07-20T16:50:05;1.50;;;1.40;;
4957;SDS011;2494;51.872;9.688;2023-07-20T16:52:50;1.93;;;1.33;;
4957;SDS011;2494;51.872;9.688;2023-07-20T16:55:35;1.40;;;1.30;;
4957;SDS011;2494;51.872;9.688;2023-07-20T16:58:24;1.40;;;1.30;;
4957;SDS011;2494;51.872;9.688;2023-07-20T17:01:09;1.27;;;1.20;;
4957;SDS011;2494;51.872;9.688;2023-07-20T17:03:56;1.30;;;1.20;;
4957;SDS011;2494;51.872;9.688;2023-07-20T17:06:41;1.43;;;1.20;;
4957;SDS011;2494;51.872;9.688;2023-07-20T17:09:25;1.27;;;1.17;;
4957;SDS011;2494;51.872;9.688;2023-07-20T17:12:11;1.50;;;1.40;;